sensor_id;sensor_type;location;lat;lon;timestamp;pressure;altitude;pressure_sealevel;temperature;humidity
78064;BME280;67429;51.596;-3.264;2023-06-14T00:00:49;99588.27;;;17.18;40.18
78064;BME280;67429;51.596;-3.264;2023-06-14T00:03:14;99586.28;;;17.01;41.89
78064;BME280;67429;51.596;-3.264;2023-06-14T00:05:39;99587.18;;;16.67;42.31
78064;BME280;67429;51.596;-3.264;2023-06-14T00:08:05;99586.47;;;16.82;42.63
78064;BME280;67429;51.596;-3.264;2023-06-14T00:10:30;99583.78;;;16.46;42.94
78064;BME280;67429;51.596;-3.264;2023-06-14T00:12:55;99583.47;;;16.52;43.22
78064;BME280;67429;51.596;-3.264;2023-06-14T00:15:21;99584.30;;;16.30;43.48
78064;BME280;67429;51.596;-3.264;2023-06-14T00:17:47;99589.99;;;16.18;43.94
78064;BME280;67429;51.596;-3.264;2023-06-14T00:20:12;99589.28;;;16.10;43.72
78064;BME280;67429;51.596;-3.264;2023-06-14T00:22:37;99590.14;;;15.90;44.45
78064;BME280;67429;51.596;-3.264;2023-06-14T00:25:03;99595.65;;;16.13;44.29
78064;BME280;67429;51.596;-3.264;2023-06-14T00:27:28;99593.38;;;15.80;44.76
78064;BME280;67429;51.596;-3.264;2023-06-14T00:29:54;99595.39;;;15.86;43.78
78064;BME280;67429;51.596;-3.264;2023-06-14T00:32:20;99595.21;;;15.85;43.25
78064;BME280;67429;51.596;-3.264;2023-06-14T00:34:45;99599.77;;;15.66;43.46
78064;BME280;67429;51.596;-3.264;2023-06-14T00:37:11;99600.93;;;16.20;42.67
78064;BME280;67429;51.596;-3.264;2023-06-14T00:39:36;99606.87;;;15.84;43.36
78064;BME280;67429;51.596;-3.264;2023-06-14T00:42:02;99612.16;;;15.41;45.19
78064;BME280;67429;51.596;-3.264;2023-06-14T00:44:27;99610.34;;;15.13;45.64
78064;BME280;67429;51.596;-3.264;2023-06-14T00:46:52;99613.81;;;15.41;45.26
78064;BME280;67429;51.596;-3.264;2023-06-14T00:49:19;99614.80;;;15.39;45.79
78064;BME280;67429;51.596;-3.264;2023-06-14T00:51:43;99619.12;;;15.46;45.15
78064;BME280;67429;51.596;-3.264;2023-06-14T00:54:09;99621.04;;;15.27;45.27
78064;BME280;67429;51.596;-3.264;2023-06-14T00:56:36;99624.87;;;15.14;45.46
78064;BME280;67429;51.596;-3.264;2023-06-14T00:59:00;99629.22;;;15.10;44.79
78064;BME280;67429;51.596;-3.264;2023-06-14T01:01:25;99628.24;;;15.85;44.03
78064;BME280;67429;51.596;-3.264;2023-06-14T01:03:50;99630.37;;;15.17;45.60
78064;BME280;67429;51.596;-3.264;2023-06-14T01:06:21;99634.47;;;15.17;45.27
78064;BME280;67429;51.596;-3.264;2023-06-14T01:08:47;99634.14;;;14.95;45.99
78064;BME280;67429;51.596;-3.264;2023-06-14T01:11:12;99631.25;;;14.98;46.18
78064;BME280;67429;51.596;-3.264;2023-06-14T01:13:34;99631.93;;;14.89;46.65
78064;BME280;67429;51.596;-3.264;2023-06-14T01:15:59;99633.61;;;15.15;45.74
78064;BME280;67429;51.596;-3.264;2023-06-14T01:18:23;99638.40;;;15.40;45.28
78064;BME280;67429;51.596;-3.264;2023-06-14T01:20:48;99638.29;;;15.32;44.65
78064;BME280;67429;51.596;-3.264;2023-06-14T01:23:14;99639.67;;;15.47;44.94
78064;BME280;67429;51.596;-3.264;2023-06-14T01:25:39;99639.51;;;15.11;45.81
78064;BME280;67429;51.596;-3.264;2023-06-14T01:28:06;99634.64;;;14.83;44.15
78064;BME280;67429;51.596;-3.264;2023-06-14T01:30:30;99635.31;;;15.45;43.15
78064;BME280;67429;51.596;-3.264;2023-06-14T01:32:56;99632.40;;;15.73;42.26
78064;BME280;67429;51.596;-3.264;2023-06-14T01:35:21;99631.34;;;15.98;41.14
78064;BME280;67429;51.596;-3.264;2023-06-14T01:37:47;99628.60;;;15.91;39.80
78064;BME280;67429;51.596;-3.264;2023-06-14T01:40:12;99630.77;;;15.68;40.08
78064;BME280;67429;51.596;-3.264;2023-06-14T01:42:38;99630.57;;;16.06;39.00
78064;BME280;67429;51.596;-3.264;2023-06-14T01:45:03;99629.15;;;16.53;38.91
78064;BME280;67429;51.596;-3.264;2023-06-14T01:47:28;99629.26;;;16.53;38.51
78064;BME280;67429;51.596;-3.264;2023-06-14T01:49:53;99623.34;;;16.74;38.31
78064;BME280;67429;51.596;-3.264;2023-06-14T01:52:18;99619.13;;;15.89;39.58
78064;BME280;67429;51.596;-3.264;2023-06-14T01:54:44;99618.52;;;16.00;39.46
78064;BME280;67429;51.596;-3.264;2023-06-14T01:57:09;99615.51;;;16.26;38.76
78064;BME280;67429;51.596;-3.264;2023-06-14T01:59:34;99612.65;;;16.28;38.82
78064;BME280;67429;51.596;-3.264;2023-06-14T02:01:59;99611.37;;;16.38;38.33
78064;BME280;67429;51.596;-3.264;2023-06-14T02:04:25;99609.43;;;15.59;39.41
78064;BME280;67429;51.596;-3.264;2023-06-14T02:06:51;99606.04;;;16.09;39.26
78064;BME280;67429;51.596;-3.264;2023-06-14T02:09:16;99603.79;;;15.66;39.60
78064;BME280;67429;51.596;-3.264;2023-06-14T02:11:42;99604.00;;;15.35;40.07
78064;BME280;67429;51.596;-3.264;2023-06-14T02:14:07;99606.27;;;16.40;38.67
78064;BME280;67429;51.596;-3.264;2023-06-14T02:16:33;99605.91;;;16.07;38.85
78064;BME280;67429;51.596;-3.264;2023-06-14T02:18:58;99606.51;;;15.56;39.72
78064;BME280;67429;51.596;-3.264;2023-06-14T02:21:24;99605.74;;;16.20;39.06
78064;BME280;67429;51.596;-3.264;2023-06-14T02:23:49;99609.41;;;16.04;38.83
78064;BME280;67429;51.596;-3.264;2023-06-14T02:26:15;99614.59;;;15.96;39.57
78064;BME280;67429;51.596;-3.264;2023-06-14T02:28:40;99613.48;;;15.64;40.53
78064;BME280;67429;51.596;-3.264;2023-06-14T02:31:06;99612.13;;;15.37;40.82
78064;BME280;67429;51.596;-3.264;2023-06-14T02:33:31;99613.37;;;15.20;41.62
78064;BME280;67429;51.596;-3.264;2023-06-14T02:35:57;99612.04;;;15.36;42.66
78064;BME280;67429;51.596;-3.264;2023-06-14T02:38:22;99603.67;;;14.87;43.51
78064;BME280;67429;51.596;-3.264;2023-06-14T02:40:48;99600.76;;;14.59;43.51
78064;BME280;67429;51.596;-3.264;2023-06-14T02:43:13;99599.51;;;14.79;42.92
78064;BME280;67429;51.596;-3.264;2023-06-14T02:45:39;99597.27;;;14.31;43.38
78064;BME280;67429;51.596;-3.264;2023-06-14T02:48:05;99598.65;;;14.32;43.43
78064;BME280;67429;51.596;-3.264;2023-06-14T02:50:30;99597.13;;;14.85;42.21
78064;BME280;67429;51.596;-3.264;2023-06-14T02:52:56;99597.88;;;15.08;41.45
78064;BME280;67429;51.596;-3.264;2023-06-14T02:55:21;99595.21;;;14.96;40.62
78064;BME280;67429;51.596;-3.264;2023-06-14T02:57:46;99595.14;;;15.16;40.58
78064;BME280;67429;51.596;-3.264;2023-06-14T03:00:12;99598.90;;;15.07;40.24
78064;BME280;67429;51.596;-3.264;2023-06-14T03:02:37;99597.25;;;14.63;40.84
78064;BME280;67429;51.596;-3.264;2023-06-14T03:05:04;99598.62;;;14.69;41.03
78064;BME280;67429;51.596;-3.264;2023-06-14T03:07:28;99597.04;;;14.08;43.48
78064;BME280;67429;51.596;-3.264;2023-06-14T03:09:54;99597.21;;;14.03;44.84
78064;BME280;67429;51.596;-3.264;2023-06-14T03:12:20;99595.99;;;13.61;45.12
78064;BME280;67429;51.596;-3.264;2023-06-14T03:14:45;99595.61;;;14.03;44.80
78064;BME280;67429;51.596;-3.264;2023-06-14T03:17:10;99594.56;;;13.81;44.83
78064;BME280;67429;51.596;-3.264;2023-06-14T03:19:36;99601.05;;;14.31;44.26
78064;BME280;67429;51.596;-3.264;2023-06-14T03:22:01;99599.49;;;13.82;44.44
78064;BME280;67429;51.596;-3.264;2023-06-14T03:24:26;99599.53;;;14.06;43.79
78064;BME280;67429;51.596;-3.264;2023-06-14T03:26:52;99596.92;;;14.07;43.53
78064;BME280;67429;51.596;-3.264;2023-06-14T03:29:17;99599.18;;;14.15;43.35
78064;BME280;67429;51.596;-3.264;2023-06-14T03:31:57;99598.82;;;13.94;43.17
78064;BME280;67429;51.596;-3.264;2023-06-14T03:34:09;99600.72;;;13.95;42.77
78064;BME280;67429;51.596;-3.264;2023-06-14T03:36:34;99599.19;;;13.84;42.19
78064;BME280;67429;51.596;-3.264;2023-06-14T03:39:00;99606.44;;;13.65;42.03
78064;BME280;67429;51.596;-3.264;2023-06-14T03:41:26;99608.90;;;13.63;41.67
78064;BME280;67429;51.596;-3.264;2023-06-14T03:43:51;99613.49;;;13.36;41.54
78064;BME280;67429;51.596;-3.264;2023-06-14T03:46:16;99611.20;;;13.10;41.63
78064;BME280;67429;51.596;-3.264;2023-06-14T03:48:41;99615.74;;;13.48;40.20
78064;BME280;67429;51.596;-3.264;2023-06-14T03:51:07;99614.55;;;13.49;40.24
78064;BME280;67429;51.596;-3.264;2023-06-14T03:53:32;99609.50;;;13.18;39.33
78064;BME280;67429;51.596;-3.264;2023-06-14T03:55:58;99613.03;;;13.50;38.20
78064;BME280;67429;51.596;-3.264;2023-06-14T03:58:23;99610.75;;;13.05;37.41
78064;BME280;67429;51.596;-3.264;2023-06-14T04:00:48;99609.83;;;12.89;37.03
78064;BME280;67429;51.596;-3.264;2023-06-14T04:03:14;99613.23;;;13.00;36.00
78064;BME280;67429;51.596;-3.264;2023-06-14T04:05:39;99614.67;;;13.35;35.11
78064;BME280;67429;51.596;-3.264;2023-06-14T04:08:05;99613.02;;;13.07;34.98
78064;BME280;67429;51.596;-3.264;2023-06-14T04:10:30;99613.57;;;13.13;34.22
78064;BME280;67429;51.596;-3.264;2023-06-14T04:12:56;99614.14;;;13.28;34.01
78064;BME280;67429;51.596;-3.264;2023-06-14T04:15:21;99612.37;;;13.19;33.45
78064;BME280;67429;51.596;-3.264;2023-06-14T04:17:47;99612.30;;;13.40;32.83
78064;BME280;67429;51.596;-3.264;2023-06-14T04:20:12;99613.32;;;12.99;32.94
78064;BME280;67429;51.596;-3.264;2023-06-14T04:22:38;99612.43;;;13.66;32.10
78064;BME280;67429;51.596;-3.264;2023-06-14T04:25:04;99606.99;;;14.04;31.97
78064;BME280;67429;51.596;-3.264;2023-06-14T04:27:29;99605.31;;;13.99;32.81
78064;BME280;67429;51.596;-3.264;2023-06-14T04:29:55;99610.98;;;13.91;32.86
78064;BME280;67429;51.596;-3.264;2023-06-14T04:32:20;99610.70;;;14.09;31.81
78064;BME280;67429;51.596;-3.264;2023-06-14T04:34:45;99608.57;;;13.96;31.34
78064;BME280;67429;51.596;-3.264;2023-06-14T04:37:11;99606.63;;;14.01;30.95
78064;BME280;67429;51.596;-3.264;2023-06-14T04:39:37;99609.10;;;13.67;31.91
78064;BME280;67429;51.596;-3.264;2023-06-14T04:42:03;99612.90;;;14.26;30.95
78064;BME280;67429;51.596;-3.264;2023-06-14T04:44:27;99609.70;;;13.83;32.47
78064;BME280;67429;51.596;-3.264;2023-06-14T04:46:53;99611.93;;;13.69;32.01
78064;BME280;67429;51.596;-3.264;2023-06-14T04:49:19;99611.33;;;14.09;32.10
78064;BME280;67429;51.596;-3.264;2023-06-14T04:51:45;99613.40;;;14.29;29.96
78064;BME280;67429;51.596;-3.264;2023-06-14T04:54:10;99615.72;;;14.92;29.79
78064;BME280;67429;51.596;-3.264;2023-06-14T04:56:35;99619.49;;;15.16;29.64
78064;BME280;67429;51.596;-3.264;2023-06-14T04:59:01;99621.62;;;14.89;29.60
78064;BME280;67429;51.596;-3.264;2023-06-14T05:01:26;99624.17;;;15.19;29.45
78064;BME280;67429;51.596;-3.264;2023-06-14T05:03:52;99628.13;;;15.92;28.82
78064;BME280;67429;51.596;-3.264;2023-06-14T05:06:18;99631.58;;;15.94;28.41
78064;BME280;67429;51.596;-3.264;2023-06-14T05:08:43;99633.88;;;15.81;27.84
78064;BME280;67429;51.596;-3.264;2023-06-14T05:11:09;99629.93;;;15.99;27.92
78064;BME280;67429;51.596;-3.264;2023-06-14T05:13:34;99632.67;;;16.46;27.59
78064;BME280;67429;51.596;-3.264;2023-06-14T05:16:05;99632.70;;;15.93;28.20
78064;BME280;67429;51.596;-3.264;2023-06-14T05:18:25;99629.10;;;15.51;28.78
78064;BME280;67429;51.596;-3.264;2023-06-14T05:20:50;99630.97;;;15.99;28.55
78064;BME280;67429;51.596;-3.264;2023-06-14T05:23:16;99631.79;;;16.06;29.27
78064;BME280;67429;51.596;-3.264;2023-06-14T05:25:42;99639.04;;;16.45;28.61
78064;BME280;67429;51.596;-3.264;2023-06-14T05:28:07;99641.20;;;16.24;28.94
78064;BME280;67429;51.596;-3.264;2023-06-14T05:30:33;99642.70;;;15.99;28.57
78064;BME280;67429;51.596;-3.264;2023-06-14T05:32:58;99640.61;;;16.13;28.66
78064;BME280;67429;51.596;-3.264;2023-06-14T05:35:24;99641.37;;;16.20;29.15
78064;BME280;67429;51.596;-3.264;2023-06-14T05:37:49;99642.30;;;15.62;30.64
78064;BME280;67429;51.596;-3.264;2023-06-14T05:40:15;99637.22;;;15.58;29.05
78064;BME280;67429;51.596;-3.264;2023-06-14T05:42:40;99633.08;;;15.39;31.26
78064;BME280;67429;51.596;-3.264;2023-06-14T05:45:07;99632.07;;;15.15;31.67
78064;BME280;67429;51.596;-3.264;2023-06-14T05:47:32;99635.84;;;16.78;27.93
78064;BME280;67429;51.596;-3.264;2023-06-14T05:49:57;99641.24;;;17.20;27.26
78064;BME280;67429;51.596;-3.264;2023-06-14T05:52:23;99641.06;;;18.10;26.91
78064;BME280;67429;51.596;-3.264;2023-06-14T05:54:48;99639.03;;;18.03;25.25
78064;BME280;67429;51.596;-3.264;2023-06-14T05:57:14;99644.09;;;17.70;25.69
78064;BME280;67429;51.596;-3.264;2023-06-14T05:59:39;99648.90;;;17.81;25.76
78064;BME280;67429;51.596;-3.264;2023-06-14T06:02:05;99649.08;;;16.79;26.61
78064;BME280;67429;51.596;-3.264;2023-06-14T06:04:31;99651.40;;;17.90;25.66
78064;BME280;67429;51.596;-3.264;2023-06-14T06:06:56;99651.17;;;17.52;25.71
78064;BME280;67429;51.596;-3.264;2023-06-14T06:09:22;99649.70;;;18.25;25.73
78064;BME280;67429;51.596;-3.264;2023-06-14T06:11:47;99653.26;;;17.89;26.10
78064;BME280;67429;51.596;-3.264;2023-06-14T06:14:13;99657.83;;;17.09;27.02
78064;BME280;67429;51.596;-3.264;2023-06-14T06:16:38;99656.16;;;17.02;28.30
78064;BME280;67429;51.596;-3.264;2023-06-14T06:19:04;99664.49;;;17.65;27.65
78064;BME280;67429;51.596;-3.264;2023-06-14T06:21:29;99666.09;;;18.91;26.51
78064;BME280;67429;51.596;-3.264;2023-06-14T06:23:56;99666.95;;;18.76;25.75
78064;BME280;67429;51.596;-3.264;2023-06-14T06:26:21;99667.83;;;17.96;26.73
78064;BME280;67429;51.596;-3.264;2023-06-14T06:28:46;99669.83;;;18.06;27.12
78064;BME280;67429;51.596;-3.264;2023-06-14T06:31:11;99670.65;;;17.01;28.15
78064;BME280;67429;51.596;-3.264;2023-06-14T06:33:37;99668.30;;;18.52;26.26
78064;BME280;67429;51.596;-3.264;2023-06-14T06:36:02;99674.31;;;17.29;28.14
78064;BME280;67429;51.596;-3.264;2023-06-14T06:38:28;99674.39;;;18.23;27.50
78064;BME280;67429;51.596;-3.264;2023-06-14T06:40:53;99671.99;;;17.74;27.85
78064;BME280;67429;51.596;-3.264;2023-06-14T06:43:19;99673.90;;;17.16;28.40
78064;BME280;67429;51.596;-3.264;2023-06-14T06:45:45;99672.96;;;16.84;28.87
78064;BME280;67429;51.596;-3.264;2023-06-14T06:48:10;99671.07;;;18.15;27.63
78064;BME280;67429;51.596;-3.264;2023-06-14T06:50:38;99671.07;;;18.40;26.96
78064;BME280;67429;51.596;-3.264;2023-06-14T06:53:01;99665.76;;;19.01;26.69
78064;BME280;67429;51.596;-3.264;2023-06-14T06:55:27;99671.41;;;19.88;26.35
78064;BME280;67429;51.596;-3.264;2023-06-14T06:57:52;99674.27;;;20.34;25.02
78064;BME280;67429;51.596;-3.264;2023-06-14T07:00:18;99674.85;;;20.53;24.96
78064;BME280;67429;51.596;-3.264;2023-06-14T07:02:48;99672.69;;;20.71;24.51
78064;BME280;67429;51.596;-3.264;2023-06-14T07:05:09;99668.95;;;20.40;24.62
78064;BME280;67429;51.596;-3.264;2023-06-14T07:07:34;99669.25;;;20.19;25.16
78064;BME280;67429;51.596;-3.264;2023-06-14T07:09:59;99670.12;;;21.56;24.26
78064;BME280;67429;51.596;-3.264;2023-06-14T07:12:25;99670.01;;;18.72;26.62
78064;BME280;67429;51.596;-3.264;2023-06-14T07:14:50;99670.73;;;19.95;26.11
78064;BME280;67429;51.596;-3.264;2023-06-14T07:17:16;99676.03;;;20.18;26.65
78064;BME280;67429;51.596;-3.264;2023-06-14T07:19:41;99675.72;;;19.39;27.44
78064;BME280;67429;51.596;-3.264;2023-06-14T07:22:07;99675.55;;;20.26;26.83
78064;BME280;67429;51.596;-3.264;2023-06-14T07:24:32;99681.41;;;20.59;26.40
78064;BME280;67429;51.596;-3.264;2023-06-14T07:26:57;99683.50;;;20.49;26.69
78064;BME280;67429;51.596;-3.264;2023-06-14T07:29:23;99685.51;;;20.36;26.20
78064;BME280;67429;51.596;-3.264;2023-06-14T07:31:49;99685.45;;;21.20;25.09
78064;BME280;67429;51.596;-3.264;2023-06-14T07:34:19;99686.53;;;20.49;26.64
78064;BME280;67429;51.596;-3.264;2023-06-14T07:36:40;99691.30;;;20.84;25.21
78064;BME280;67429;51.596;-3.264;2023-06-14T07:39:05;99691.84;;;19.83;26.42
78064;BME280;67429;51.596;-3.264;2023-06-14T07:41:30;99683.96;;;19.74;27.69
78064;BME280;67429;51.596;-3.264;2023-06-14T07:43:56;99682.26;;;19.78;27.02
78064;BME280;67429;51.596;-3.264;2023-06-14T07:46:21;99680.82;;;20.58;26.48
78064;BME280;67429;51.596;-3.264;2023-06-14T07:48:46;99684.62;;;19.92;27.06
78064;BME280;67429;51.596;-3.264;2023-06-14T07:51:12;99684.11;;;20.10;26.48
78064;BME280;67429;51.596;-3.264;2023-06-14T07:53:38;99680.45;;;19.71;27.19
78064;BME280;67429;51.596;-3.264;2023-06-14T07:56:04;99678.39;;;20.60;26.75
78064;BME280;67429;51.596;-3.264;2023-06-14T07:58:29;99674.45;;;20.70;25.65
78064;BME280;67429;51.596;-3.264;2023-06-14T08:00:55;99672.24;;;21.07;25.38
78064;BME280;67429;51.596;-3.264;2023-06-14T08:03:19;99678.18;;;22.12;25.01
78064;BME280;67429;51.596;-3.264;2023-06-14T08:05:45;99678.85;;;21.28;24.78
78064;BME280;67429;51.596;-3.264;2023-06-14T08:08:10;99682.38;;;21.80;25.01
78064;BME280;67429;51.596;-3.264;2023-06-14T08:10:36;99685.96;;;22.86;23.84
78064;BME280;67429;51.596;-3.264;2023-06-14T08:13:01;99680.87;;;21.79;23.67
78064;BME280;67429;51.596;-3.264;2023-06-14T08:15:27;99680.66;;;21.66;24.61
78064;BME280;67429;51.596;-3.264;2023-06-14T08:17:52;99679.73;;;21.51;24.51
78064;BME280;67429;51.596;-3.264;2023-06-14T08:20:17;99679.31;;;21.37;23.85
78064;BME280;67429;51.596;-3.264;2023-06-14T08:22:48;99686.04;;;23.33;22.88
78064;BME280;67429;51.596;-3.264;2023-06-14T08:25:09;99682.34;;;22.26;23.03
78064;BME280;67429;51.596;-3.264;2023-06-14T08:27:34;99690.73;;;21.63;23.76
78064;BME280;67429;51.596;-3.264;2023-06-14T08:29:59;99686.64;;;21.69;24.09
78064;BME280;67429;51.596;-3.264;2023-06-14T08:32:24;99683.54;;;21.28;24.97
78064;BME280;67429;51.596;-3.264;2023-06-14T08:34:51;99687.67;;;21.83;23.64
78064;BME280;67429;51.596;-3.264;2023-06-14T08:37:15;99687.90;;;23.01;22.97
78064;BME280;67429;51.596;-3.264;2023-06-14T08:39:41;99683.79;;;23.68;22.03
78064;BME280;67429;51.596;-3.264;2023-06-14T08:42:07;99683.32;;;21.98;23.26
78064;BME280;67429;51.596;-3.264;2023-06-14T08:44:32;99684.11;;;23.74;22.21
78064;BME280;67429;51.596;-3.264;2023-06-14T08:46:59;99685.57;;;24.24;21.43
78064;BME280;67429;51.596;-3.264;2023-06-14T08:49:23;99686.61;;;23.68;21.75
78064;BME280;67429;51.596;-3.264;2023-06-14T08:51:50;99690.11;;;22.03;22.42
78064;BME280;67429;51.596;-3.264;2023-06-14T08:54:14;99682.22;;;23.00;22.76
78064;BME280;67429;51.596;-3.264;2023-06-14T08:56:39;99680.72;;;23.83;21.41
78064;BME280;67429;51.596;-3.264;2023-06-14T08:59:06;99679.13;;;23.97;20.83
78064;BME280;67429;51.596;-3.264;2023-06-14T09:01:33;99682.55;;;25.24;20.30
78064;BME280;67429;51.596;-3.264;2023-06-14T09:03:55;99681.78;;;24.86;19.27
78064;BME280;67429;51.596;-3.264;2023-06-14T09:06:21;99683.59;;;25.26;19.78
78064;BME280;67429;51.596;-3.264;2023-06-14T09:08:47;99688.01;;;26.47;18.24
78064;BME280;67429;51.596;-3.264;2023-06-14T09:11:12;99689.35;;;25.51;17.94
78064;BME280;67429;51.596;-3.264;2023-06-14T09:13:37;99683.00;;;24.91;18.82
78064;BME280;67429;51.596;-3.264;2023-06-14T09:16:03;99687.88;;;24.72;20.06
78064;BME280;67429;51.596;-3.264;2023-06-14T09:18:34;99688.09;;;25.40;19.45
78064;BME280;67429;51.596;-3.264;2023-06-14T09:20:53;99692.42;;;25.34;19.33
78064;BME280;67429;51.596;-3.264;2023-06-14T09:23:21;99687.66;;;24.83;19.73
78064;BME280;67429;51.596;-3.264;2023-06-14T09:25:46;99690.36;;;24.49;19.74
78064;BME280;67429;51.596;-3.264;2023-06-14T09:28:09;99693.50;;;24.93;20.08
78064;BME280;67429;51.596;-3.264;2023-06-14T09:30:36;99688.05;;;25.48;19.60
78064;BME280;67429;51.596;-3.264;2023-06-14T09:33:00;99693.19;;;24.62;19.86
78064;BME280;67429;51.596;-3.264;2023-06-14T09:35:26;99690.54;;;24.68;18.94
78064;BME280;67429;51.596;-3.264;2023-06-14T09:37:51;99684.98;;;25.18;18.31
78064;BME280;67429;51.596;-3.264;2023-06-14T09:40:20;99692.73;;;23.97;19.12
78064;BME280;67429;51.596;-3.264;2023-06-14T09:42:43;99695.21;;;25.49;17.84
78064;BME280;67429;51.596;-3.264;2023-06-14T09:45:08;99700.14;;;24.06;18.60
78064;BME280;67429;51.596;-3.264;2023-06-14T09:47:32;99696.91;;;23.64;19.32
78064;BME280;67429;51.596;-3.264;2023-06-14T09:49:58;99700.96;;;24.73;18.76
78064;BME280;67429;51.596;-3.264;2023-06-14T09:52:23;99703.72;;;23.75;18.66
78064;BME280;67429;51.596;-3.264;2023-06-14T09:54:49;99705.20;;;24.55;18.66
78064;BME280;67429;51.596;-3.264;2023-06-14T09:57:15;99703.26;;;25.55;18.16
78064;BME280;67429;51.596;-3.264;2023-06-14T09:59:42;99713.80;;;24.54;18.34
78064;BME280;67429;51.596;-3.264;2023-06-14T10:02:10;99703.93;;;25.99;17.48
78064;BME280;67429;51.596;-3.264;2023-06-14T10:04:31;99706.53;;;26.05;17.69
78064;BME280;67429;51.596;-3.264;2023-06-14T10:06:56;99703.36;;;26.06;17.31
78064;BME280;67429;51.596;-3.264;2023-06-14T10:09:21;99704.90;;;25.69;17.08
78064;BME280;67429;51.596;-3.264;2023-06-14T10:11:46;99706.07;;;25.65;17.39
78064;BME280;67429;51.596;-3.264;2023-06-14T10:14:12;99702.98;;;25.83;17.64
78064;BME280;67429;51.596;-3.264;2023-06-14T10:16:52;99713.23;;;24.29;19.20
78064;BME280;67429;51.596;-3.264;2023-06-14T10:19:10;99716.62;;;23.50;21.18
78064;BME280;67429;51.596;-3.264;2023-06-14T10:21:33;99713.08;;;22.06;23.10
78064;BME280;67429;51.596;-3.264;2023-06-14T10:23:53;99719.02;;;23.88;20.68
78064;BME280;67429;51.596;-3.264;2023-06-14T10:26:21;99712.65;;;24.02;21.02
78064;BME280;67429;51.596;-3.264;2023-06-14T10:28:56;99717.38;;;25.17;19.52
78064;BME280;67429;51.596;-3.264;2023-06-14T10:31:11;99715.06;;;24.77;20.19
78064;BME280;67429;51.596;-3.264;2023-06-14T10:33:36;99719.96;;;23.51;21.88
78064;BME280;67429;51.596;-3.264;2023-06-14T10:36:10;99716.58;;;24.97;21.18
78064;BME280;67429;51.596;-3.264;2023-06-14T10:38:31;99714.86;;;25.06;20.85
78064;BME280;67429;51.596;-3.264;2023-06-14T10:40:53;99714.00;;;25.31;20.44
78064;BME280;67429;51.596;-3.264;2023-06-14T10:43:23;99711.10;;;24.54;20.61
78064;BME280;67429;51.596;-3.264;2023-06-14T10:48:17;99717.58;;;24.92;20.88
78064;BME280;67429;51.596;-3.264;2023-06-14T10:50:33;99719.50;;;26.12;19.78
78064;BME280;67429;51.596;-3.264;2023-06-14T10:52:58;99718.77;;;25.56;19.28
78064;BME280;67429;51.596;-3.264;2023-06-14T10:55:24;99717.27;;;25.43;19.47
78064;BME280;67429;51.596;-3.264;2023-06-14T10:57:50;99717.62;;;27.13;16.45
78064;BME280;67429;51.596;-3.264;2023-06-14T11:00:15;99712.29;;;27.55;12.95
78064;BME280;67429;51.596;-3.264;2023-06-14T11:02:46;99707.50;;;26.36;14.10
78064;BME280;67429;51.596;-3.264;2023-06-14T11:05:08;99710.78;;;26.30;15.96
78064;BME280;67429;51.596;-3.264;2023-06-14T11:07:39;99711.60;;;25.95;15.40
78064;BME280;67429;51.596;-3.264;2023-06-14T11:10:06;99711.17;;;26.99;16.52
78064;BME280;67429;51.596;-3.264;2023-06-14T11:12:22;99712.75;;;27.07;14.55
78064;BME280;67429;51.596;-3.264;2023-06-14T11:14:48;99704.31;;;25.12;15.01
78064;BME280;67429;51.596;-3.264;2023-06-14T11:17:12;99702.45;;;26.59;12.93
78064;BME280;67429;51.596;-3.264;2023-06-14T11:19:37;99702.71;;;26.39;12.56
78064;BME280;67429;51.596;-3.264;2023-06-14T11:22:03;99706.51;;;25.67;12.26
78064;BME280;67429;51.596;-3.264;2023-06-14T11:24:28;99703.66;;;27.09;12.22
78064;BME280;67429;51.596;-3.264;2023-06-14T11:26:57;99705.18;;;26.96;11.46
78064;BME280;67429;51.596;-3.264;2023-06-14T11:29:20;99712.57;;;27.03;9.09
78064;BME280;67429;51.596;-3.264;2023-06-14T11:31:45;99707.07;;;25.62;9.95
78064;BME280;67429;51.596;-3.264;2023-06-14T11:34:11;99706.64;;;26.88;10.21
78064;BME280;67429;51.596;-3.264;2023-06-14T11:36:35;99705.31;;;27.49;11.98
78064;BME280;67429;51.596;-3.264;2023-06-14T11:39:02;99699.12;;;27.72;12.03
78064;BME280;67429;51.596;-3.264;2023-06-14T11:41:26;99698.96;;;26.92;11.50
78064;BME280;67429;51.596;-3.264;2023-06-14T11:43:53;99694.62;;;29.06;8.86
78064;BME280;67429;51.596;-3.264;2023-06-14T11:46:17;99695.07;;;27.59;9.66
78064;BME280;67429;51.596;-3.264;2023-06-14T11:48:42;99698.65;;;27.17;10.77
78064;BME280;67429;51.596;-3.264;2023-06-14T11:51:07;99695.32;;;27.42;12.18
78064;BME280;67429;51.596;-3.264;2023-06-14T11:53:33;99691.68;;;27.87;10.54
78064;BME280;67429;51.596;-3.264;2023-06-14T11:55:58;99691.80;;;28.63;11.12
78064;BME280;67429;51.596;-3.264;2023-06-14T11:58:23;99689.99;;;29.30;9.04
78064;BME280;67429;51.596;-3.264;2023-06-14T12:00:49;99688.27;;;29.46;7.86
78064;BME280;67429;51.596;-3.264;2023-06-14T12:03:14;99683.46;;;30.74;7.73
78064;BME280;67429;51.596;-3.264;2023-06-14T12:05:39;99688.54;;;30.79;8.41
78064;BME280;67429;51.596;-3.264;2023-06-14T12:08:05;99684.86;;;30.10;9.01
78064;BME280;67429;51.596;-3.264;2023-06-14T12:10:30;99683.28;;;30.74;9.04
78064;BME280;67429;51.596;-3.264;2023-06-14T12:12:57;99682.98;;;28.93;9.45
78064;BME280;67429;51.596;-3.264;2023-06-14T12:15:22;99685.01;;;30.14;9.10
78064;BME280;67429;51.596;-3.264;2023-06-14T12:17:46;99680.58;;;30.55;9.12
78064;BME280;67429;51.596;-3.264;2023-06-14T12:20:13;99680.52;;;29.43;9.00
78064;BME280;67429;51.596;-3.264;2023-06-14T12:22:37;99681.78;;;30.48;9.05
78064;BME280;67429;51.596;-3.264;2023-06-14T12:25:03;99678.53;;;31.08;8.66
78064;BME280;67429;51.596;-3.264;2023-06-14T12:27:28;99678.57;;;29.82;10.43
78064;BME280;67429;51.596;-3.264;2023-06-14T12:29:59;99677.24;;;30.02;10.83
78064;BME280;67429;51.596;-3.264;2023-06-14T12:32:18;99680.31;;;29.20;10.21
78064;BME280;67429;51.596;-3.264;2023-06-14T12:34:43;99675.67;;;28.32;9.44
78064;BME280;67429;51.596;-3.264;2023-06-14T12:37:09;99672.29;;;28.07;9.86
78064;BME280;67429;51.596;-3.264;2023-06-14T12:39:34;99670.99;;;29.72;10.36
78064;BME280;67429;51.596;-3.264;2023-06-14T12:41:59;99672.70;;;30.71;9.85